createdAt,value
2023-04-17T00:01:28.283Z,11.10
2023-04-17T00:03:57.592Z,11.10
2023-04-17T00:06:24.711Z,11.10
2023-04-17T00:08:51.494Z,11.10
2023-04-17T00:11:18.854Z,11.00
2023-04-17T00:13:45.863Z,11.10
2023-04-17T00:16:13.814Z,11.00
2023-04-17T00:18:41.467Z,11.00
2023-04-17T00:21:08.370Z,11.00
2023-04-17T00:23:35.375Z,11.00
2023-04-17T00:26:02.192Z,11.00
2023-04-17T00:28:29.010Z,11.00
2023-04-17T00:30:56.097Z,11.00
2023-04-17T00:33:22.910Z,11.00
2023-04-17T00:35:49.757Z,11.00
2023-04-17T00:38:16.513Z,11.00
2023-04-17T00:40:45.272Z,11.00
2023-04-17T00:43:12.106Z,11.00
2023-04-17T00:45:39.667Z,11.00
2023-04-17T00:48:08.158Z,11.00
2023-04-17T00:50:35.891Z,11.00
2023-04-17T00:53:03.308Z,11.00
2023-04-17T00:55:31.406Z,11.00
2023-04-17T00:57:58.866Z,11.00
2023-04-17T01:00:25.697Z,11.00
2023-04-17T01:02:52.810Z,11.00
2023-04-17T01:05:19.649Z,11.00
2023-04-17T01:07:46.497Z,10.90
2023-04-17T01:10:13.324Z,11.00
2023-04-17T01:12:41.333Z,10.90
2023-04-17T01:15:08.337Z,11.00
2023-04-17T01:17:35.249Z,11.00
2023-04-17T01:20:05.431Z,11.00
2023-04-17T01:22:32.209Z,10.90
2023-04-17T01:24:59.078Z,10.90
2023-04-17T01:27:25.870Z,10.90
2023-04-17T01:29:52.685Z,10.90
2023-04-17T01:32:19.387Z,10.90
2023-04-17T01:34:46.136Z,10.90
2023-04-17T01:37:12.905Z,10.90
2023-04-17T01:39:39.663Z,10.90
2023-04-17T01:42:06.688Z,10.90
2023-04-17T01:44:33.582Z,10.90
2023-04-17T01:47:00.295Z,10.80
2023-04-17T01:49:27.215Z,10.90
2023-04-17T01:51:53.978Z,10.80
2023-04-17T01:54:21.277Z,10.80
2023-04-17T01:56:48.164Z,10.80
2023-04-17T01:59:14.864Z,10.80
2023-04-17T02:01:41.864Z,10.80
2023-04-17T02:04:08.837Z,10.80
2023-04-17T02:06:35.960Z,10.80
2023-04-17T02:09:03.070Z,10.80
2023-04-17T02:11:29.878Z,10.80
2023-04-17T02:13:56.556Z,10.80
2023-04-17T02:16:23.366Z,10.80
2023-04-17T02:18:50.952Z,10.80
2023-04-17T02:21:17.805Z,10.80
2023-04-17T02:23:44.615Z,10.80
2023-04-17T02:26:11.393Z,10.80
2023-04-17T02:28:38.231Z,10.80
2023-04-17T02:31:09.031Z,10.80
2023-04-17T02:33:36.861Z,10.80
2023-04-17T02:36:04.952Z,10.80
2023-04-17T02:38:31.940Z,10.80
2023-04-17T02:40:59.293Z,10.80
2023-04-17T02:43:26.028Z,10.80
2023-04-17T02:45:52.855Z,10.80
2023-04-17T02:48:19.628Z,10.80
2023-04-17T02:50:46.399Z,10.80
2023-04-17T02:53:13.220Z,10.80
2023-04-17T02:55:40.038Z,10.80
2023-04-17T02:58:06.777Z,10.80
2023-04-17T03:00:33.638Z,10.80
2023-04-17T03:03:01.109Z,10.80
2023-04-17T03:05:30.370Z,10.80
2023-04-17T03:07:59.141Z,10.80
2023-04-17T03:10:25.973Z,10.80
2023-04-17T03:12:53.416Z,10.70
2023-04-17T03:15:20.335Z,10.80
2023-04-17T03:17:47.393Z,10.80
2023-04-17T03:20:16.077Z,10.80
2023-04-17T03:22:42.943Z,10.80
2023-04-17T03:25:10.442Z,10.80
2023-04-17T03:27:38.662Z,10.80
2023-04-17T03:30:06.427Z,10.70
2023-04-17T03:32:33.311Z,10.70
2023-04-17T03:35:00.241Z,10.70
2023-04-17T03:37:27.015Z,10.70
2023-04-17T03:39:55.612Z,10.70
2023-04-17T03:42:22.325Z,10.70
2023-04-17T03:44:48.995Z,10.70
2023-04-17T03:47:15.737Z,10.70
2023-04-17T03:49:42.472Z,10.80
2023-04-17T03:52:09.204Z,10.80
2023-04-17T03:54:36.016Z,10.70
2023-04-17T03:57:03.745Z,10.80
2023-04-17T03:59:31.717Z,10.70
2023-04-17T04:01:58.642Z,10.70
2023-04-17T04:04:26.070Z,10.70
2023-04-17T04:06:54.501Z,10.70
2023-04-17T04:09:21.625Z,10.70
2023-04-17T04:11:48.616Z,10.70
2023-04-17T04:14:15.408Z,10.70
2023-04-17T04:16:42.445Z,10.70
2023-04-17T04:19:09.394Z,10.70
2023-04-17T04:21:36.252Z,10.70
2023-04-17T04:24:03.207Z,10.70
2023-04-17T04:26:29.966Z,10.70
2023-04-17T04:28:56.828Z,10.70
2023-04-17T04:31:25.605Z,10.70
2023-04-17T04:33:55.246Z,10.70
2023-04-17T04:36:22.976Z,10.70
2023-04-17T04:38:50.519Z,10.70
2023-04-17T04:41:17.794Z,10.70
2023-04-17T04:43:44.613Z,10.70
2023-04-17T04:46:11.686Z,10.70
2023-04-17T04:48:40.607Z,10.70
2023-04-17T04:51:09.204Z,10.70
2023-04-17T04:53:36.136Z,10.70
2023-04-17T04:56:03.031Z,10.70
2023-04-17T04:58:29.835Z,10.70
2023-04-17T05:00:56.668Z,10.70
2023-04-17T05:03:23.918Z,10.70
2023-04-17T05:05:50.732Z,10.70
2023-04-17T05:08:17.620Z,10.70
2023-04-17T05:10:46.038Z,10.70
2023-04-17T05:13:12.853Z,10.70
2023-04-17T05:15:41.316Z,10.70
2023-04-17T05:18:08.161Z,10.70
2023-04-17T05:20:34.929Z,10.70
2023-04-17T05:23:01.778Z,10.70
2023-04-17T05:25:28.473Z,10.70
2023-04-17T05:27:55.311Z,10.70
2023-04-17T05:30:22.129Z,10.70
2023-04-17T05:32:48.916Z,10.70
2023-04-17T05:35:15.806Z,10.70
2023-04-17T05:37:42.540Z,10.70
2023-04-17T05:40:09.706Z,10.70
2023-04-17T05:42:36.573Z,10.70
2023-04-17T05:45:03.623Z,10.70
2023-04-17T05:47:30.554Z,10.70
2023-04-17T05:49:58.507Z,10.80
2023-04-17T05:52:25.717Z,10.80
2023-04-17T05:54:52.513Z,10.80
2023-04-17T05:57:19.891Z,10.80
2023-04-17T05:59:47.061Z,10.80
2023-04-17T06:02:13.885Z,10.80
2023-04-17T06:04:41.552Z,10.80
2023-04-17T06:07:09.808Z,10.80
2023-04-17T06:09:37.061Z,10.80
2023-04-17T06:12:04.546Z,10.80
2023-04-17T06:14:31.562Z,10.90
2023-04-17T06:16:58.377Z,10.90
2023-04-17T06:19:25.312Z,10.80
2023-04-17T06:21:52.073Z,10.90
2023-04-17T06:24:19.016Z,10.90
2023-04-17T06:26:45.926Z,10.90
2023-04-17T06:29:13.874Z,10.90
2023-04-17T06:31:40.861Z,10.90
2023-04-17T06:34:07.707Z,10.90
2023-04-17T06:36:34.460Z,10.90
2023-04-17T06:39:01.216Z,10.90
2023-04-17T06:41:27.916Z,10.90
2023-04-17T06:43:54.720Z,10.90
2023-04-17T06:46:23.018Z,10.90
2023-04-17T06:48:52.169Z,10.90
2023-04-17T06:51:21.021Z,10.90
2023-04-17T06:53:51.024Z,10.90
2023-04-17T06:56:18.212Z,10.90
2023-04-17T06:58:45.013Z,10.90
2023-04-17T07:01:13.215Z,10.90
2023-04-17T07:03:41.135Z,10.90
2023-04-17T07:06:08.591Z,10.90
2023-04-17T07:08:35.497Z,10.90
2023-04-17T07:11:02.880Z,10.90
2023-04-17T07:13:31.596Z,11.00
2023-04-17T07:16:01.198Z,10.90
2023-04-17T07:18:29.594Z,10.90
2023-04-17T07:20:56.763Z,11.00
2023-04-17T07:23:23.757Z,11.00
2023-04-17T07:25:50.739Z,11.00
2023-04-17T07:28:18.200Z,11.00
2023-04-17T07:30:45.478Z,11.00
2023-04-17T07:33:12.282Z,11.10
2023-04-17T07:35:39.169Z,11.10
2023-04-17T07:38:06.061Z,11.10
2023-04-17T07:40:34.582Z,11.10
2023-04-17T07:43:01.370Z,11.20
2023-04-17T07:45:28.614Z,11.20
2023-04-17T07:47:55.745Z,11.20
2023-04-17T07:50:22.716Z,11.20
2023-04-17T07:52:49.454Z,11.20
2023-04-17T07:55:16.759Z,11.20
2023-04-17T07:57:43.580Z,11.20
2023-04-17T08:00:13.794Z,11.30
2023-04-17T08:02:42.007Z,11.30
2023-04-17T08:05:09.902Z,11.30
2023-04-17T08:07:37.721Z,11.30
2023-04-17T08:10:05.347Z,11.30
2023-04-17T08:12:32.028Z,11.30
2023-04-17T08:14:58.827Z,11.30
2023-04-17T08:17:26.106Z,11.30
2023-04-17T08:19:59.147Z,11.30
2023-04-17T08:22:26.101Z,11.30
2023-04-17T08:24:57.807Z,11.40
2023-04-17T08:27:25.605Z,11.40
2023-04-17T08:29:55.565Z,11.40
2023-04-17T08:32:22.375Z,11.40
2023-04-17T08:34:49.153Z,11.50
2023-04-17T08:37:15.902Z,11.50
2023-04-17T08:39:42.695Z,11.50
2023-04-17T08:42:18.542Z,11.50
2023-04-17T08:44:45.973Z,11.60
2023-04-17T08:47:13.333Z,11.60
2023-04-17T08:49:43.651Z,11.60
2023-04-17T08:52:11.352Z,11.70
2023-04-17T08:54:39.557Z,11.70
2023-04-17T08:57:06.831Z,11.70
2023-04-17T08:59:33.855Z,11.70
2023-04-17T09:02:08.013Z,11.70
2023-04-17T09:04:39.487Z,11.70
2023-04-17T09:07:07.760Z,11.70
2023-04-17T09:09:55.090Z,11.70
2023-04-17T09:12:23.894Z,11.80
2023-04-17T09:14:51.052Z,11.80
2023-04-17T09:17:19.466Z,11.80
2023-04-17T09:20:07.696Z,11.80
2023-04-17T09:22:36.539Z,11.80
2023-04-17T09:25:04.651Z,11.90
2023-04-17T09:27:31.885Z,11.90
2023-04-17T09:30:01.404Z,12.00
2023-04-17T09:32:30.182Z,12.00
2023-04-17T09:34:59.264Z,12.10
2023-04-17T09:37:33.836Z,12.10
2023-04-17T09:40:02.129Z,12.10
2023-04-17T09:42:29.081Z,12.20
2023-04-17T09:44:55.825Z,12.10
2023-04-17T09:47:22.835Z,12.10
2023-04-17T09:49:52.799Z,12.20
2023-04-17T09:52:21.485Z,12.10
2023-04-17T09:54:51.196Z,12.10
2023-04-17T09:57:18.796Z,12.10
2023-04-17T09:59:48.763Z,12.10
2023-04-17T10:02:19.951Z,12.00
2023-04-17T10:04:47.711Z,12.10
2023-04-17T10:07:16.539Z,12.10
2023-04-17T10:09:47.023Z,12.10
2023-04-17T10:12:18.679Z,12.10
2023-04-17T10:14:48.404Z,12.10
2023-04-17T10:17:26.219Z,12.10
2023-04-17T10:19:53.144Z,12.20
2023-04-17T10:22:19.915Z,12.10
2023-04-17T10:24:51.961Z,12.10
2023-04-17T10:27:25.018Z,12.10
2023-04-17T10:30:02.692Z,12.10
2023-04-17T10:32:30.385Z,12.10
2023-04-17T10:35:02.262Z,12.00
2023-04-17T10:37:52.079Z,12.10
2023-04-17T10:40:21.481Z,12.10
2023-04-17T10:43:11.167Z,12.20
2023-04-17T10:45:54.280Z,12.20
2023-04-17T10:48:46.721Z,12.20
2023-04-17T10:51:28.942Z,12.30
2023-04-17T10:53:58.162Z,12.30
2023-04-17T10:56:27.903Z,12.30
2023-04-17T10:59:01.865Z,12.30
2023-04-17T11:01:37.589Z,12.40
2023-04-17T11:04:04.926Z,12.40
2023-04-17T11:06:33.212Z,12.50
2023-04-17T11:09:00.838Z,12.70
2023-04-17T11:11:40.470Z,12.80
2023-04-17T11:14:19.235Z,12.90
2023-04-17T11:16:48.880Z,13.00
2023-04-17T11:19:19.564Z,13.00
2023-04-17T11:21:48.909Z,13.10
2023-04-17T11:24:28.415Z,13.20
2023-04-17T11:26:56.641Z,13.30
2023-04-17T11:29:24.495Z,13.40
2023-04-17T11:31:55.757Z,13.40
2023-04-17T11:34:23.196Z,13.50
2023-04-17T11:36:55.127Z,13.40
2023-04-17T11:39:23.815Z,13.40
2023-04-17T11:41:52.031Z,13.30
2023-04-17T11:44:22.486Z,13.30
2023-04-17T11:46:51.404Z,13.30
2023-04-17T11:49:25.995Z,13.30
2023-04-17T11:51:53.469Z,13.20
2023-04-17T11:54:30.994Z,13.20
2023-04-17T11:57:11.155Z,13.20
2023-04-17T11:59:39.626Z,13.10
2023-04-17T12:02:07.985Z,13.10
2023-04-17T12:04:36.410Z,13.10
2023-04-17T12:07:05.009Z,13.10
2023-04-17T12:09:33.141Z,13.10
2023-04-17T12:12:07.601Z,13.10
2023-04-17T12:14:34.948Z,13.10
2023-04-17T12:17:01.818Z,13.10
2023-04-17T12:19:29.546Z,13.00
2023-04-17T12:21:57.382Z,13.00
2023-04-17T12:24:26.582Z,12.90
2023-04-17T12:26:53.498Z,13.00
2023-04-17T12:29:29.449Z,13.00
2023-04-17T12:32:03.925Z,13.10
2023-04-17T12:34:31.022Z,13.20
2023-04-17T12:36:57.863Z,13.20
2023-04-17T12:39:24.671Z,13.30
2023-04-17T12:41:51.434Z,13.50
2023-04-17T12:44:18.193Z,13.70
2023-04-17T12:46:44.988Z,13.90
2023-04-17T12:49:12.012Z,13.90
2023-04-17T12:51:39.015Z,13.90
2023-04-17T12:54:06.015Z,14.00
2023-04-17T12:56:32.885Z,14.00
2023-04-17T12:59:02.689Z,14.00
2023-04-17T13:01:30.104Z,13.90
2023-04-17T13:03:57.280Z,13.90
2023-04-17T13:06:24.346Z,13.80
2023-04-17T13:08:51.165Z,13.80
2023-04-17T13:11:17.976Z,13.80
2023-04-17T13:13:45.022Z,13.70
2023-04-17T13:16:11.943Z,13.70
2023-04-17T13:18:38.884Z,13.60
2023-04-17T13:21:06.538Z,13.60
2023-04-17T13:23:33.409Z,13.60
2023-04-17T13:26:00.298Z,13.50
2023-04-17T13:28:27.044Z,13.40
2023-04-17T13:30:53.987Z,13.40
2023-04-17T13:33:20.855Z,13.40
2023-04-17T13:35:47.966Z,13.40
2023-04-17T13:38:14.702Z,13.50
2023-04-17T13:40:41.413Z,13.50
2023-04-17T13:43:09.116Z,13.50
2023-04-17T13:45:36.059Z,13.60
2023-04-17T13:48:02.933Z,13.60
2023-04-17T13:50:29.778Z,13.60
2023-04-17T13:52:56.521Z,13.60
2023-04-17T13:55:23.737Z,13.60
2023-04-17T13:57:51.374Z,13.60
2023-04-17T14:00:18.901Z,13.60
2023-04-17T14:02:45.970Z,13.60
2023-04-17T14:05:12.928Z,13.50
2023-04-17T14:07:39.800Z,13.50
2023-04-17T14:10:07.669Z,13.50
2023-04-17T14:12:34.413Z,13.50
2023-04-17T14:15:01.102Z,13.40
2023-04-17T14:17:28.350Z,13.40
2023-04-17T14:19:55.051Z,13.40
2023-04-17T14:22:21.889Z,13.40
2023-04-17T14:24:48.664Z,13.40
2023-04-17T14:27:15.538Z,13.40
2023-04-17T14:29:42.319Z,13.40
2023-04-17T14:32:09.236Z,13.50
2023-04-17T14:34:35.993Z,13.40
2023-04-17T14:37:02.758Z,13.50
2023-04-17T14:39:31.360Z,13.50
2023-04-17T14:41:59.755Z,13.50
2023-04-17T14:44:28.675Z,13.50
2023-04-17T14:46:56.938Z,13.50
2023-04-17T14:49:24.218Z,13.60
2023-04-17T14:51:51.090Z,13.60
2023-04-17T14:54:17.837Z,13.60
2023-04-17T14:56:44.697Z,13.60
2023-04-17T14:59:12.061Z,13.60
2023-04-17T15:01:39.213Z,13.60
2023-04-17T15:04:06.700Z,13.60
2023-04-17T15:06:33.740Z,13.70
2023-04-17T15:09:00.551Z,13.70
2023-04-17T15:11:27.415Z,13.70
2023-04-17T15:13:54.692Z,13.70
2023-04-17T15:16:21.541Z,13.70
2023-04-17T15:18:48.472Z,13.70
2023-04-17T15:21:16.227Z,13.70
2023-04-17T15:23:43.213Z,13.70
2023-04-17T15:26:10.051Z,13.70
2023-04-17T15:28:36.978Z,13.70
2023-04-17T15:31:03.967Z,13.80
2023-04-17T15:33:30.952Z,13.80
2023-04-17T15:35:58.985Z,13.80
2023-04-17T15:38:26.633Z,13.70
2023-04-17T15:40:53.783Z,13.70
2023-04-17T15:43:20.956Z,13.70
2023-04-17T15:45:51.697Z,13.70
2023-04-17T15:48:18.638Z,13.70
2023-04-17T15:50:46.201Z,13.70
2023-04-17T15:53:13.342Z,13.70
2023-04-17T15:55:41.373Z,13.70
2023-04-17T15:58:08.508Z,13.70
2023-04-17T16:00:35.230Z,13.70
2023-04-17T16:03:02.294Z,13.70
2023-04-17T16:05:30.189Z,13.70
2023-04-17T16:07:57.273Z,13.70
2023-04-17T16:10:24.273Z,13.70
2023-04-17T16:12:51.111Z,13.60
2023-04-17T16:15:18.449Z,13.60
2023-04-17T16:17:45.879Z,13.60
2023-04-17T16:20:13.124Z,13.60
2023-04-17T16:22:40.454Z,13.60
2023-04-17T16:25:07.629Z,13.60
2023-04-17T16:27:34.394Z,13.60
2023-04-17T16:30:02.348Z,13.60
2023-04-17T16:32:29.172Z,13.60
2023-04-17T16:34:56.160Z,13.60
2023-04-17T16:37:23.076Z,13.60
2023-04-17T16:39:50.889Z,13.50
2023-04-17T16:42:17.989Z,13.60
2023-04-17T16:44:45.931Z,13.50
2023-04-17T16:47:14.241Z,13.50
2023-04-17T16:49:41.809Z,13.50
2023-04-17T16:52:08.550Z,13.40
2023-04-17T16:54:35.351Z,13.40
2023-04-17T16:57:02.150Z,13.40
2023-04-17T16:59:28.900Z,13.40
2023-04-17T17:01:55.822Z,13.40
2023-04-17T17:04:22.668Z,13.40
2023-04-17T17:06:49.723Z,13.40
2023-04-17T17:09:16.489Z,13.40
2023-04-17T17:11:43.284Z,13.40
2023-04-17T17:14:10.076Z,13.30
2023-04-17T17:16:36.967Z,13.30
2023-04-17T17:19:03.949Z,13.30
2023-04-17T17:21:31.143Z,13.30
2023-04-17T17:23:58.073Z,13.30
2023-04-17T17:26:25.223Z,13.30
2023-04-17T17:28:53.307Z,13.20
2023-04-17T17:31:20.617Z,13.30
2023-04-17T17:33:50.043Z,13.20
2023-04-17T17:36:17.287Z,13.20
2023-04-17T17:38:44.622Z,13.20
2023-04-17T17:41:11.604Z,13.20
2023-04-17T17:43:38.370Z,13.20
2023-04-17T17:46:05.421Z,13.10
2023-04-17T17:48:33.806Z,13.10
2023-04-17T17:51:00.584Z,13.10
2023-04-17T17:53:27.384Z,13.10
2023-04-17T17:55:55.608Z,13.10
2023-04-17T17:58:22.704Z,13.10
2023-04-17T18:00:50.564Z,13.10
2023-04-17T18:03:17.886Z,13.10
2023-04-17T18:05:46.557Z,13.00
2023-04-17T18:08:14.220Z,13.00
2023-04-17T18:10:40.994Z,13.00
2023-04-17T18:13:07.925Z,13.00
2023-04-17T18:15:36.238Z,13.00
2023-04-17T18:18:03.323Z,13.00
2023-04-17T18:20:30.246Z,13.00
2023-04-17T18:22:57.608Z,12.90
2023-04-17T18:25:24.570Z,12.90
2023-04-17T18:27:51.582Z,12.90
2023-04-17T18:30:18.501Z,12.90
2023-04-17T18:32:45.320Z,12.90
2023-04-17T18:35:12.270Z,12.90
2023-04-17T18:37:39.705Z,12.90
2023-04-17T18:40:07.895Z,12.80
2023-04-17T18:42:34.669Z,12.80
2023-04-17T18:45:01.622Z,12.80
2023-04-17T18:47:28.722Z,12.80
2023-04-17T18:49:55.740Z,12.70
2023-04-17T18:52:22.728Z,12.80
2023-04-17T18:54:49.587Z,12.70
2023-04-17T18:57:16.366Z,12.70
2023-04-17T18:59:43.432Z,12.70
2023-04-17T19:02:10.437Z,12.70
2023-04-17T19:04:37.468Z,12.70
2023-04-17T19:07:04.644Z,12.70
2023-04-17T19:09:31.611Z,12.70
2023-04-17T19:11:58.720Z,12.70
2023-04-17T19:14:28.629Z,12.70
2023-04-17T19:16:55.814Z,12.70
2023-04-17T19:19:23.910Z,12.60
2023-04-17T19:21:51.013Z,12.60
2023-04-17T19:24:18.013Z,12.60
2023-04-17T19:26:46.473Z,12.60
2023-04-17T19:29:17.151Z,12.60
2023-04-17T19:31:44.665Z,12.50
2023-04-17T19:34:11.970Z,12.60
2023-04-17T19:36:39.356Z,12.60
2023-04-17T19:39:06.889Z,12.50
2023-04-17T19:41:33.974Z,12.50
2023-04-17T19:44:02.558Z,12.50
2023-04-17T19:46:29.815Z,12.50
2023-04-17T19:48:56.813Z,12.50
2023-04-17T19:51:23.784Z,12.50
2023-04-17T19:53:50.918Z,12.50
2023-04-17T19:56:17.934Z,12.50
2023-04-17T19:58:45.045Z,12.40
2023-04-17T20:01:11.973Z,12.40
2023-04-17T20:03:39.517Z,12.40
2023-04-17T20:06:07.167Z,12.40
2023-04-17T20:08:35.474Z,12.40
2023-04-17T20:11:04.783Z,12.40
2023-04-17T20:13:31.673Z,12.30
2023-04-17T20:15:58.697Z,12.30
2023-04-17T20:18:25.611Z,12.30
2023-04-17T20:20:52.404Z,12.30
2023-04-17T20:23:19.288Z,12.30
2023-04-17T20:25:46.480Z,12.30
2023-04-17T20:28:13.255Z,12.30
2023-04-17T20:30:40.264Z,12.30
2023-04-17T20:33:07.259Z,12.20
2023-04-17T20:35:34.138Z,12.30
2023-04-17T20:38:01.730Z,12.30
2023-04-17T20:40:28.577Z,12.20
2023-04-17T20:42:55.661Z,12.20
2023-04-17T20:45:22.453Z,12.20
2023-04-17T20:50:20.714Z,12.20
2023-04-17T20:52:50.611Z,12.20
2023-04-17T20:55:21.295Z,12.20
2023-04-17T20:57:48.317Z,12.20
2023-04-17T21:00:18.491Z,12.10
2023-04-17T21:02:48.320Z,12.10
2023-04-17T21:05:26.929Z,12.10
2023-04-17T21:07:57.863Z,12.10
2023-04-17T21:10:24.699Z,12.10
2023-04-17T21:12:54.194Z,12.10
2023-04-17T21:15:26.485Z,12.10
2023-04-17T21:17:53.223Z,12.00
2023-04-17T21:20:20.099Z,12.00
2023-04-17T21:22:46.938Z,12.00
2023-04-17T21:25:13.790Z,12.00
2023-04-17T21:27:41.577Z,12.00
2023-04-17T21:30:10.616Z,12.00
2023-04-17T21:32:38.968Z,12.00
2023-04-17T21:35:06.319Z,12.00
2023-04-17T21:37:33.070Z,12.00
2023-04-17T21:39:59.915Z,11.90
2023-04-17T21:42:26.759Z,11.90
2023-04-17T21:44:53.585Z,11.90
2023-04-17T21:47:20.485Z,11.90
2023-04-17T21:49:50.188Z,11.90
2023-04-17T21:52:17.216Z,11.90
2023-04-17T21:54:44.072Z,11.90
2023-04-17T21:57:10.800Z,11.90
2023-04-17T21:59:37.664Z,11.90
2023-04-17T22:02:04.469Z,11.90
2023-04-17T22:04:31.339Z,11.90
2023-04-17T22:06:58.105Z,11.80
2023-04-17T22:09:25.274Z,11.80
2023-04-17T22:11:53.045Z,11.80
2023-04-17T22:14:19.897Z,11.80
2023-04-17T22:16:46.689Z,11.80
2023-04-17T22:19:13.543Z,11.80
2023-04-17T22:21:40.409Z,11.80
2023-04-17T22:24:07.702Z,11.80
2023-04-17T22:26:40.022Z,11.80
2023-04-17T22:29:18.539Z,11.80
2023-04-17T22:31:48.215Z,11.80
2023-04-17T22:34:18.738Z,11.80
2023-04-17T22:36:48.319Z,11.80
2023-04-17T22:39:28.460Z,11.80
2023-04-17T22:41:55.285Z,11.70
2023-04-17T22:44:24.158Z,11.70
2023-04-17T22:46:50.896Z,11.70
2023-04-17T22:49:19.670Z,11.70
2023-04-17T22:51:50.812Z,11.70
2023-04-17T22:54:24.391Z,11.70
2023-04-17T22:56:54.095Z,11.70
2023-04-17T22:59:25.605Z,11.70
2023-04-17T23:01:53.603Z,11.70
2023-04-17T23:04:24.113Z,11.70
2023-04-17T23:06:52.855Z,11.70
2023-04-17T23:09:22.561Z,11.70
2023-04-17T23:11:53.957Z,11.70
2023-04-17T23:14:23.402Z,11.70
2023-04-17T23:16:52.677Z,11.70
2023-04-17T23:19:24.948Z,11.70
2023-04-17T23:21:51.799Z,11.60
2023-04-17T23:24:24.604Z,11.70
2023-04-17T23:26:56.363Z,11.70
2023-04-17T23:29:26.095Z,11.60
2023-04-17T23:31:59.689Z,11.60
2023-04-17T23:34:29.375Z,11.60
2023-04-17T23:36:56.082Z,11.60
2023-04-17T23:39:29.084Z,11.60
2023-04-17T23:42:04.001Z,11.60
2023-04-17T23:44:30.760Z,11.60
2023-04-17T23:46:57.605Z,11.60
2023-04-17T23:49:24.403Z,11.60
2023-04-17T23:51:51.164Z,11.60
2023-04-17T23:54:17.925Z,11.60
2023-04-17T23:56:45.203Z,11.60
2023-04-17T23:59:12.029Z,11.60
